Stunt Ranch Reserve, Santa Monica Mtns, California Weather observations

Data are for 10 minute period ending at time listed.
 Day   Time   Solar   Ave.   Ave.  Ave.  Vector  Max.   Baro.   Total    
  of    of     Rad.   Air    Rel.  Wind   Wind   Wind  Press.  Precip.   
Year   Day            Temp.  Hum.  Speed  Dir.   Gust                    
2020   (PST)  Kw/m2    F      %     mph   deg.    mph    mb.     in.     
-------------------------------------------------------------------------
 261   18:10   0.00   77.6    19    2.1   256     3.9   968.1    0.00 
 261   18:20   0.00   76.5    20    2.2   252     4.4   968.2    0.00 
 261   18:30   0.00   76.1    21    2.4   249     3.6   968.2    0.00 
 261   18:40   0.00   75.3    22    2.3   240     3.6   968.2    0.00 
 261   18:50   0.00   74.6    22    2.5   238     3.7   968.3    0.00 
 261   19:00   0.00   74.3    23    2.5   213     3.3   968.4    0.00 
 261   19:10   0.00   74.3    24    2.1   194     4.9   968.4    0.00 
 261   19:20   0.00   74.4    23    0.6   227     2.3   968.5    0.00 
 261   19:30   0.00   75.0    22    1.3   210     5.1   968.5    0.00 
 261   19:40   0.00   76.2    20    1.7   236     5.4   968.5    0.00 
 261   19:50   0.00   75.6    20    0.5    82     1.6   968.6    0.00 
 261   20:00   0.00   74.8    18    2.0   206     3.9   968.6    0.00 
 261   20:10   0.00   74.2    16    1.5   235     3.4   968.6    0.00 
 261   20:20   0.00   75.8    14    1.1   185     4.1   968.6    0.00 
 261   20:30   0.00   75.1    13    0.9   178     3.0   968.6    0.00 
 261   20:40   0.00   76.1    12    0.8   177     3.2   968.6    0.00 
 261   20:50   0.00   76.1    10    1.7   164     3.3   968.5    0.00 
 261   21:00   0.00   76.3    10    0.6   248     1.8   968.4    0.00 
 261   21:10   0.00   77.0     9    1.7   270     2.6   968.4    0.00 
 261   21:20   0.00   76.4     9    1.2   150     3.0   968.4    0.00 
 261   21:30   0.00   76.4     7    1.2   170     2.7   968.3    0.00 
 261   21:40   0.00   77.1     7    1.2   271     2.6   968.3    0.00 
 261   21:50   0.00   74.9     9    1.7   120     2.6   968.3    0.00 
 261   22:00   0.00   75.7     8    1.6   195     2.9   968.3    0.00 
 261   22:10   0.00   76.3     8    1.5   142     3.4   968.2    0.00 
 261   22:20   0.00   76.7     8    1.1   186     2.8   968.1    0.00 
 261   22:30   0.00   77.3     8    0.1   259     1.0   968.0    0.00 
 261   22:40   0.00   76.9     9    1.4   284     2.8   968.1    0.00 
 261   22:50   0.00   74.8    10    0.9   120     2.3   968.2    0.00 
 261   23:00   0.00   73.7    11    2.3   128     3.7   968.1    0.00 
 261   23:10   0.00   75.4    10    1.2   153     2.9   968.0    0.00 
 261   23:20   0.00   77.1    10    0.8   233     1.9   967.9    0.00 
 261   23:30   0.00   77.9    10    0.9   265     2.1   967.9    0.00 
 261   23:40   0.00   77.3    11    0.2    24     1.0   967.9    0.00 
 261   23:50   0.00   77.1    11    1.2   151     2.7   967.9    0.00 
 262    0:00   0.00   76.9    12    1.5   280     3.0   967.9    0.00 
 262    0:10   0.00   75.2    14    2.3   112     4.1   967.9    0.00 
 262    0:20   0.00   74.6    14    0.9   207     2.2   967.9    0.00 
 262    0:30   0.00   73.3    15    1.1   169     2.0   967.9    0.00 
 262    0:40   0.00   74.8    14    2.1   148     4.2   967.9    0.00 
 262    0:50   0.00   76.0    13    2.1   148     4.4   967.7    0.00 
 262    1:00   0.00   77.6    12    0.9   242     2.3   967.7    0.00 
 262    1:10   0.00   76.6    13    0.5   353     2.0   967.7    0.00 
 262    1:20   0.00   75.2    14    0.5   331     1.8   967.7    0.00 
 262    1:30   0.00   73.0    16    2.1   277     4.6   967.7    0.00 
 262    1:40   0.00   70.5    17    1.9   133     3.8   967.8    0.00 
 262    1:50   0.00   71.5    16    3.7   125     4.5   967.7    0.00 
 262    2:00   0.00   74.1    14    2.9   138     3.6   967.6    0.00 
 262    2:10   0.00   75.7    12    3.6   152     4.9   967.5    0.00 
 262    2:20   0.00   76.8    11    2.1   172     3.3   967.4    0.00 
 262    2:30   0.00   77.5    12    2.0   171     2.8   967.4    0.00 
 262    2:40   0.00   77.5    13    1.5   186     2.4   967.3    0.00 
 262    2:50   0.00   77.4    14    1.1   216     3.6   967.3    0.00 
 262    3:00   0.00   77.6    13    0.8   294     1.9   967.3    0.00 
 262    3:10   0.00   77.0    14    0.3   107     1.8   967.3    0.00 
 262    3:20   0.00   76.3    14    0.6   169     1.7   967.3    0.00 
 262    3:30   0.00   77.7    13    0.9   138     2.3   967.3    0.00 
 262    3:40   0.00   77.1    13    0.4   261     1.5   967.4    0.00 
 262    3:50   0.00   76.2    14    0.6   179     1.7   967.3    0.00 
 262    4:00   0.00   75.8    13    1.6   273     2.8   967.4    0.00 
 262    4:10   0.00   74.0    15    0.5    95     2.9   967.6    0.00 
 262    4:20   0.00   71.8    16    0.8   234     1.9   967.6    0.00 
 262    4:30   0.00   71.9    16    0.2   197     2.0   967.7    0.00 
 262    4:40   0.00   73.4    15    0.7   168     2.0   967.7    0.00 
 262    4:50   0.00   73.3    15    4.5   117     7.5   967.5    0.00 
 262    5:00   0.00   74.1    13    3.2    92     6.2   967.4    0.00 
 262    5:10   0.00   74.7    14    1.8   289     4.7   967.7    0.00 
 262    5:20   0.00   73.9    16    0.8   305     3.1   967.9    0.00 
 262    5:30   0.00   69.8    18    3.3   125     5.0   968.0    0.00 
 262    5:40   0.00   69.6    18    2.5   131     3.9   968.0    0.00 
 262    5:50   0.01   72.2    15    2.8   128     4.0   967.9    0.00 
 262    6:00   0.01   74.1    14    2.5   241     4.2   967.9    0.00 
 262    6:10   0.03   74.3    14    0.9   329     2.9   968.1    0.00 
 262    6:20   0.05   73.8    15    1.5   131     3.1   968.0    0.00 
 262    6:30   0.06   74.3    15    0.9   133     2.4   968.0    0.00 
 262    6:40   0.15   75.5    15    1.9   280     3.6   968.0    0.00 
 262    6:50   0.17   78.2    15    2.7   282     4.9   968.2    0.00 
 262    7:00   0.21   76.8    16    2.3   116     3.1   968.3    0.00 
 262    7:10   0.25   78.0    14    2.4   111     3.5   968.2    0.00 
 262    7:20   0.30   81.7    13    1.0   111     2.5   968.2    0.00 
 262    7:30   0.33   84.8    13    2.1   283     3.6   968.2    0.00 
 262    7:40   0.37   84.8    12    0.8   297     1.8   968.2    0.00 
 262    7:50   0.38   84.7    13    1.4   329     3.4   968.3    0.00 
 262    8:00   0.30   86.2    12    1.9   284     3.8   968.4    0.00 
 262    8:10   0.29   83.1    14    2.4    74     4.8   968.6    0.00 
 262    8:20   0.36   83.8    13    0.9   325     3.0   968.6    0.00 
 262    8:30   0.48   85.9    12    1.1    11     3.2   968.8    0.00 
 262    8:40   0.52   88.2    11    0.8   334     2.7   968.9    0.00 
 262    8:50   0.48   89.0    11    1.2   345     3.4   968.9    0.00 
 262    9:00   0.59   89.5     9    1.1   289     2.3   968.9    0.00 
 262    9:10   0.63   91.7     8    1.5   325     3.7   968.9    0.00 
 262    9:20   0.53   94.1     8    3.0   278     5.6   969.0    0.00 
 262    9:30   0.61   95.6     8    2.7   284     5.0   969.0    0.00 
 262    9:40   0.59   94.8     7    2.0   298     4.2   968.9    0.00 
 262    9:50   0.51   95.9     7    3.6   284     6.1   968.8    0.00 
 262   10:00   0.44   95.9     7    2.7   286     5.7   968.8    0.00 
 262   10:10   0.68   96.1     8    2.0   313     5.0   968.8    0.00 
 262   10:20   0.46   96.7     9    2.8   294     6.4   968.7    0.00 
 262   10:30   0.62   97.0     9    3.4   280     5.9   968.7    0.00 
 262   10:40   0.93   98.4     8    2.6   307     6.2   968.7    0.00 
 262   10:50   0.87   98.9     8    2.9   331     8.5   968.6    0.00 
 262   11:00   0.82  100.1     7    5.2    15    10.6   968.6    0.00 
 262   11:10   0.84  100.6     8    3.9     0     9.2   968.5    0.00 
 262   11:20   0.83  100.8     8    3.3   351     8.8   968.4    0.00 
 262   11:30   0.78  101.8     7    2.3   342     6.1   968.2    0.00 
 262   11:40   0.83  102.3     8    2.8   320     9.8   968.2    0.00 
 262   11:50   0.83  103.4    11    3.4   284     8.8   968.1    0.00 
 262   12:00   0.82  101.3    11    4.6   289     8.3   968.1    0.00 
 262   12:10   0.81  101.5    10    3.0   295     6.3   968.0    0.00 
 262   12:20   0.82  102.0     8    3.6   300     9.1   967.9    0.00 
 262   12:30   0.80  103.2     7    3.0   288     8.4   967.9    0.00 
 262   12:40   0.87  104.5     7    2.8   282     8.0   967.8    0.00 
 262   12:50   0.86  104.5     7    3.9   303     8.9   967.7    0.00 
 262   13:00   0.44  103.8     8    2.7   282     8.3   967.7    0.00 
 262   13:10   0.27   99.1     9    1.4   301     5.3   967.7    0.00 
 262   13:20   0.32   95.4    10    1.3   312     3.8   967.5    0.00 
 262   13:30   0.64   95.0    10    2.2   304     6.3   967.4    0.00 
 262   13:40   0.83   98.4     9    3.3   284     8.8   967.4    0.00 
 262   13:50   0.71   99.2     8    3.3   300     6.4   967.3    0.00 
 262   14:00   0.70  100.8     7    2.9   287     6.9   967.2    0.00 
 262   14:10   0.67  102.2     8    3.8   295     6.9   967.1    0.00 
 262   14:20   0.64  102.0     8    3.2   283     9.2   967.1    0.00 
 262   14:30   0.62  102.0     9    4.0   286    10.4   967.0    0.00 
 262   14:40   0.60  101.5     9    2.3   284     7.2   966.9    0.00 
 262   14:50   0.57  101.9     8    3.8   289    12.7   966.9    0.00 
 262   15:00   0.54   99.0     9    3.0   298    12.6   966.9    0.00 
 262   15:10   0.51   99.2     9    2.9   314     8.9   966.9    0.00 
 262   15:20   0.48   99.2    10    3.5   286     8.4   966.8    0.00 
 262   15:30   0.45   99.1    11    3.7   283     9.2   966.8    0.00 
 262   15:40   0.43   98.0    12    2.6   304     6.8   966.7    0.00 
 262   15:50   0.22   97.3    12    2.6   284     7.2   966.7    0.00 
 262   16:00   0.31   96.2    13    2.3   276     6.9   966.6    0.00 
 262   16:10   0.34   96.8    13    2.6   296     7.3   966.6    0.00 
 262   16:20   0.29   96.0    13    3.4   279     7.9   966.6    0.00 
 262   16:30   0.26   95.5    12    5.0   316    10.4   966.6    0.00 
 262   16:40   0.23   94.0    12    2.1   310     9.2   966.7    0.00 
 262   16:50   0.19   92.2    13    2.4   307     7.5   966.7    0.00 
 262   17:00   0.16   91.3    15    3.2   303    10.9   966.7    0.00 
 262   17:10   0.13   89.6    17    2.4   300     7.7   966.8    0.00 
 262   17:20   0.10   88.5    18    3.3   279     8.0   966.8    0.00 
 262   17:30   0.06   87.4    20    2.8   276     7.0   966.8    0.00 
 262   17:40   0.02   85.7    22    2.6   277     6.5   966.9    0.00 
 262   17:50   0.01   85.0    23    2.2   284     6.1   966.9    0.00 
 262   18:00   0.01   83.8    24    1.2   300     4.4   966.9    0.00 

Return to Stunt Ranch Reserve graphs page.


Western Regional Climate Center,wrcc@dri.edu